Airport View

Enter AWOS ICAO identifier for current METAR.

ex. KFNL

KCSQ 300410Z AUTO 00000KT 10SM OVC110 M00/M01 A3018 RMK AO2

30 Oct 2020 04:12

Frequency: 124.75

Phone: 641-782-6286

Other Area AWOS: KI75 - KLWD - KICL - KAIO

TAF KDSM 292320Z 3000/3024 36007KT P6SM SCT025 BKN035 FM300200 34004KT P6SM FEW070 FM300900 14005KT P6SM FEW070